Urjupinsk, Russia
Current Conditions -  °F | °C
As of 10:30 PM on Sunday 23 Nov 2014 (Local Time) from UUOO Reporting Station
Clear Clear  
Wind Chill: 26°   Ceiling: Unl
Heat Index: 32°   Visibility: 6mi
Dew Point: 18°   Wind: 7mph
Humidity: 55%   Direction: 30°NNE
Pressure: 30.48"   Gusts: NA
Location:  50.78°N, 42°E
Report Text: UUOO 231930Z 03003MPS CAVOK M00/M08 Q1032 NOSIG RMK 30090070
Loading
Personal Weather Stations






























Interactive Weather Map New forecast layout! Learn more

10-Day Weather Forecast

Advertisements
Track Severe Weather on mobile